Flight Track Log - Related Links

Times and Time Zones

All times are in EDT time to prevent confusion due to time zone crossing. See the ASQ5874 flight status page for this flight to view local times or setup timezone preferences in your user account.

Time Position Orientation Groundspeed Altitude Reporting Facility
EDT Latitude Longitude Course Direction KTS MPH feet Rate Location/Type
Thu 07:36:09 AM 42.0000 -87.9333 20° North 161 185 1,800  Level Chicago TRACON
Thu 07:37:03 AM 42.0333 -87.9167 20° North 233 268 3,300 1,632 Climbing Chicago TRACON
Thu 07:38:03 AM 42.0667 -87.8333 62° Northeast 268 308 4,900 1,533 Climbing Chicago TRACON
Thu 07:40:07 AM 42.0753 -87.6314 87° East 270 311 8,000 1,849 Climbing Chicago Center
Thu 07:41:08 AM 42.1117 -87.5369 63° Northeast 286 329 10,600 2,410 Climbing Chicago Center
Thu 07:42:09 AM 42.1300 -87.4350 76° East 281 323 12,900 1,756 Climbing Chicago Center
Thu 07:43:11 AM 42.1389 -87.3225 84° East 298 343 14,200 1,122 Climbing Chicago Center
Thu 07:44:12 AM 42.1483 -87.1942 84° East 336 387 15,200 1,073 Climbing Chicago Center
Thu 07:45:14 AM 42.1592 -87.0583 84° East 362 417 16,400 1,220 Climbing Chicago Center
Thu 07:46:15 AM 42.1728 -86.8900 84° East 375 432 17,700 1,268 Climbing Chicago Center
Thu 07:47:17 AM 42.1822 -86.7469 85° East 382 440 19,000 1,220 Climbing Chicago Center
Thu 07:48:18 AM 42.1928 -86.6164 84° East 394 453 20,200 1,171 Climbing Chicago Center
Thu 07:49:20 AM 42.2044 -86.4675 84° East 400 460 21,400 1,073 Climbing Chicago Center
Thu 07:50:21 AM 42.2150 -86.3147 85° East 406 467 22,400 1,073 Climbing Chicago Center
Thu 07:51:23 AM 42.2286 -86.1264 84° East 419 482 23,600 1,268 Climbing Chicago Center
Thu 07:52:24 AM 42.2394 -85.9689 85° East 422 486 25,000 1,268 Climbing Chicago Center
Thu 07:53:26 AM 42.2478 -85.8281 85° East 416 479 26,200 1,220 Climbing Chicago Center
Thu 07:54:27 AM 42.2589 -85.6731 84° East 417 480 27,500 1,220 Climbing Chicago Center
Thu 07:55:29 AM 42.2708 -85.4869 85° East 417 480 28,700 1,241 Climbing Chicago Center
Thu 07:56:23 AM 42.2844 -85.3439 83° East 420 483 29,900 1,357 Climbing Cleveland Center
Thu 07:57:24 AM 42.2928 -85.1900 86° East 420 483 31,300 1,350 Climbing Cleveland Center
Thu 07:58:23 AM 42.3011 -85.0306 86° East 420 483 32,600 1,350 Climbing Cleveland Center
Thu 07:59:24 AM 42.2989 -84.8731 91° East 420 483 34,000 1,200 Climbing Cleveland Center
Thu 08:00:23 AM 42.3192 -84.7200 80° East 420 483 35,000 500 Climbing Cleveland Center
Thu 08:01:24 AM 42.3478 -84.5589 76° East 425 489 35,000  Level Cleveland Center
Thu 08:02:23 AM 42.3844 -84.3981 73° East 436 502 35,000  Level Cleveland Center
Thu 08:03:23 AM 42.4189 -84.2369 74° East 442 509 35,000  Level Cleveland Center
Thu 08:04:23 AM 42.4531 -84.0728 74° East 442 509 35,000  Level Cleveland Center
Thu 08:05:23 AM 42.4892 -83.9086 73° East 442 509 35,000  Level Cleveland Center
Thu 08:06:24 AM 42.5231 -83.7469 74° East 448 516 35,000  Level Cleveland Center
Thu 08:07:23 AM 42.5586 -83.5825 74° East 448 516 35,000  Level Cleveland Center
Thu 08:08:24 AM 42.5942 -83.4206 73° East 448 516 35,000  Level Cleveland Center
Thu 08:09:24 AM 42.6250 -83.2583 75° East 448 516 35,000  Level Cleveland Center
Thu 08:10:23 AM 42.6600 -83.0961 74° East 448 516 35,000  Level Cleveland Center
Thu 08:11:23 AM 42.6858 -82.9558 76° East 448 516 35,000  Level Cleveland Center
Thu 08:12:23 AM 42.7286 -82.7964 70° East 443 510 35,000  Level Cleveland Center
Thu 08:13:24 AM 42.7753 -82.6425 68° East 438 504 35,000  Level Cleveland Center
Thu 08:14:23 AM 42.8239 -82.4883 67° East 443 510 35,000  Level Cleveland Center
Thu 08:15:23 AM 42.8722 -82.3311 67° East 443 510 35,000  Level Cleveland Center
Thu 08:15:41 AM 42.8833 -82.2667 77° East 450 518 35,000  Level Toronto Center
Thu 08:16:41 AM 42.9167 -82.1000 75° East 450 518 35,000  Level Toronto Center
Thu 08:17:41 AM 42.9667 -81.9500 65° Northeast 450 518 35,000  Level Toronto Center
Thu 08:18:41 AM 43.0333 -81.7833 61° Northeast 450 518 35,000  Level Toronto Center
Thu 08:19:41 AM 43.0667 -81.6167 75° East 450 518 35,000  Level Toronto Center
Thu 08:20:41 AM 43.1167 -81.4667 65° Northeast 450 518 35,000  Level Toronto Center
Thu 08:21:41 AM 43.1667 -81.3000 68° East 450 518 35,000  Level Toronto Center
Thu 08:22:41 AM 43.2000 -81.1667 71° East 450 518 35,000  Level Toronto Center
Thu 08:23:41 AM 43.2500 -80.9833 69° East 450 518 35,000  Level Toronto Center
Thu 08:24:41 AM 43.3000 -80.8167 68° East 450 518 35,000  Level Toronto Center
Thu 08:25:41 AM 43.3500 -80.6667 65° Northeast 450 518 35,000  Level Toronto Center
Thu 08:26:41 AM 43.4000 -80.5333 63° Northeast 450 518 35,000  Level Toronto Center
Thu 08:28:41 AM 43.4833 -80.2000 71° East 440 506 35,000  Level Toronto Center
Thu 08:29:41 AM 43.5333 -80.0167 69° East 440 506 35,000  Level Toronto Center
Thu 08:30:41 AM 43.5667 -79.8833 71° East 440 506 35,000  Level Toronto Center
Thu 08:31:41 AM 43.6167 -79.7333 65° Northeast 440 506 35,000  Level Toronto Center
Thu 08:32:41 AM 43.6667 -79.5667 67° East 450 518 35,000  Level Toronto Center
Thu 08:33:41 AM 43.7167 -79.4000 67° East 450 518 35,000  Level Toronto Center
Thu 08:34:41 AM 43.7500 -79.2333 74° East 440 506 35,000  Level Toronto Center
Thu 08:35:41 AM 43.8000 -79.0833 65° Northeast 440 506 35,000  Level Toronto Center
Thu 08:36:41 AM 43.8500 -78.9333 65° Northeast 440 506 35,000  Level Toronto Center
Thu 08:37:41 AM 43.9000 -78.7500 69° East 440 506 35,000  Level Toronto Center
Thu 08:38:41 AM 43.9500 -78.6167 62° Northeast 450 518 35,000  Level Toronto Center
Thu 08:39:41 AM 43.9667 -78.4500 82° East 450 518 35,000  Level Toronto Center
Thu 08:40:41 AM 44.0333 -78.2833 61° Northeast 450 518 35,000  Level Toronto Center
Thu 08:41:41 AM 44.1000 -78.1500 55° Northeast 450 518 35,000  Level Toronto Center
Thu 08:42:41 AM 44.1667 -78.0000 58° Northeast 440 506 35,000  Level Toronto Center
Thu 08:43:41 AM 44.2333 -77.8667 55° Northeast 440 506 35,000 -400 Level Toronto Center
Thu 08:44:41 AM 44.3000 -77.7000 61° Northeast 440 506 34,200 -1,400 Descending Toronto Center
Thu 08:45:41 AM 44.3667 -77.5500 58° Northeast 440 506 32,200 -2,000 Descending Toronto Center
Thu 08:46:41 AM 44.4333 -77.4167 55° Northeast 420 483 30,200 -1,985 Descending Toronto Center
Thu 08:47:51 AM 44.5000 -77.3000 51° Northeast 420 483 27,900 -2,446 Descending Montreal Center
Thu 08:48:51 AM 44.5667 -77.1500 58° Northeast 430 495 24,900 -2,950 Descending Montreal Center
Thu 08:49:51 AM 44.6167 -77.0000 65° Northeast 430 495 22,000 -2,500 Descending Montreal Center
Thu 08:50:51 AM 44.6833 -76.8667 55° Northeast 430 495 19,900 -2,000 Descending Montreal Center
Thu 08:51:51 AM 44.7500 -76.7500 51° Northeast 390 449 18,000 -1,750 Descending Montreal Center
Thu 08:52:51 AM 44.8000 -76.6333 59° Northeast 350 403 16,400 -1,000 Descending Montreal Center
Thu 08:53:51 AM 44.8500 -76.5333 55° Northeast 320 368 16,000 -550 Descending Montreal Center
Thu 08:54:51 AM 44.9000 -76.4333 55° Northeast 300 345 15,300 -500 Descending Montreal Center
Thu 08:55:51 AM 44.9500 -76.3500 50° Northeast 290 334 15,000 -500 Descending Montreal Center
Thu 08:56:51 AM 44.9833 -76.2500 65° Northeast 290 334 14,300 -850 Descending Montreal Center
Thu 08:57:51 AM 45.0000 -76.1333 79° East 300 345 13,300 -1,050 Descending Montreal Center
Thu 08:58:51 AM 45.0167 -76.0167 79° East 300 345 12,200 -1,450 Descending Montreal Center
Thu 08:59:51 AM 45.0500 -75.9167 65° Northeast 270 311 10,400 -1,750 Descending Montreal Center
Thu 09:00:51 AM 45.0667 -75.8333 74° East 260 299 8,700 -1,900 Descending Montreal Center
Thu 09:01:51 AM 45.0833 -75.7333 77° East 240 276 6,600 -2,200 Descending Montreal Center
Thu 09:02:51 AM 45.1167 -75.6333 65° Northeast 250 288 4,300 -2,150 Descending Montreal Center
Thu 09:03:51 AM 45.1333 -75.5333 77° East 240 276 2,300 -1,100 Descending Montreal Center
Thu 09:04:51 AM 45.1833 -75.5000 25° Northeast 200 230 2,100 -100 Descending Montreal Center
Thu 09:05:51 AM 45.2333 -75.5333 335° Northwest 190 219 2,100 -250 Level Montreal Center
Thu 09:06:51 AM 45.2667 -75.5833 313° West 150 173 1,600 -600 Descending Montreal Center
Thu 09:07:51 AM 45.2833 -75.6333 295° West 120 138 900 -700 Descending Montreal Center

Login

Don't have an account? Register now (free) for customized features, flight alerts, and more!